Latest Weather Observations for Roseworthy

IDS60801

Issued at 10:31 am CDT Saturday 7 March 2015 (issued every 30 minutes, with the page automatically refreshed every 10 minutes)

About weather observations | Map of weather stations | Latest weather observations for SA | Other Formats
Station Details ID: 023122 Name: ROSEWORTHY AWS Lat: -34.51 Lon: 138.68 Height: 65.0 m
Data from the previous 72 hours. | See also: Recent months at Roseworthy
Date/Time
CDT
Temp
°C
App
Temp
°C
Dew
Point
Rel
Hum
%
Delta-T
°C
Wind Press
QNH
hPa
Press
MSL
hPa
Rain
since 9 am
mm
Dir
 
Spd
km/h
Gust
km/h
Spd
kts
Gust
kts
07/10:30am 19.5 17.3 12.0 62 4.2 W 15 19 8 10 1016.1 - 0.0
07/10:00am 19.0 17.9 11.8 63 4.0 W 9 15 5 8 1016.1 - 0.0
07/09:30am 18.3 17.5 11.8 66 3.6 NW 7 11 4 6 1016.0 - 0.0
07/09:00am 17.6 16.4 11.6 68 3.3 N 9 11 5 6 1015.8 1015.7 0.0
07/08:30am 17.0 15.7 11.3 69 3.1 N 9 11 5 6 1015.7 - 0.0
07/08:00am 15.6 14.3 11.2 75 2.4 N 9 11 5 6 1015.8 - 0.0
07/07:30am 13.9 13.1 9.7 76 2.2 N 4 9 2 5 1015.4 - 0.0
07/07:00am 14.5 14.5 9.9 74 2.4 CALM 0 0 0 0 1014.9 - 0.0
07/06:30am 15.0 14.8 10.6 75 2.3 N 2 6 1 3 1014.7 - 0.0
07/06:00am 14.8 13.7 10.8 77 2.1 N 7 9 4 5 1014.6 1014.5 0.0
07/05:30am 14.7 14.9 10.5 76 2.2 CALM 0 6 0 3 1014.5 - 0.0
07/05:00am 14.6 13.2 10.8 78 2.0 NNW 9 9 5 5 1014.6 - 0.0
07/04:30am 13.0 11.7 9.3 78 1.9 NNW 6 7 3 4 1014.6 - 0.0
07/04:00am 13.2 11.9 9.3 77 2.0 NNW 6 7 3 4 1014.6 - 0.0
07/03:30am 14.0 14.1 10.0 77 2.1 CALM 0 0 0 0 1014.6 - 0.0
07/03:00am 14.6 14.7 10.0 74 2.4 CALM 0 6 0 3 1014.8 1014.7 0.0
07/02:30am 14.9 14.8 10.9 77 2.1 SSW 2 7 1 4 1015.1 - 0.0
07/02:00am 14.8 13.3 10.6 76 2.2 WNW 9 11 5 6 1015.8 - 0.0
07/01:30am 15.5 14.8 11.3 76 2.3 NW 6 9 3 5 1015.5 - 0.0
07/01:00am 15.7 14.8 11.5 76 2.3 NNW 7 9 4 5 1015.6 - 0.0
07/12:30am 15.5 14.4 11.9 79 2.0 NNW 9 13 5 7 1016.0 - 0.0
07/12:00am 14.0 12.2 11.0 82 1.6 N 11 13 6 7 1016.1 1016.0 0.0
 
Date/Time
CDT
Temp
°C
App
Temp
°C
Dew
Point
Rel
Hum
%
Delta-T
°C
Wind Press
QNH
hPa
Press
MSL
hPa
Rain
since 9 am
mm
Dir
 
Spd
km/h
Gust
km/h
Spd
kts
Gust
kts
06/11:30pm 13.3 10.8 9.7 79 1.8 NNW 13 13 7 7 1016.4 - 0.0
06/11:00pm 13.7 11.7 10.3 80 1.8 NNW 11 13 6 7 1016.5 - 0.0
06/10:30pm 14.3 13.8 10.9 80 1.8 SW 4 6 2 3 1016.4 - 0.0
06/10:00pm 15.2 14.1 10.8 75 2.3 WSW 7 9 4 5 1016.4 - 0.0
06/09:30pm 16.1 14.7 10.8 71 2.8 SSW 9 13 5 7 1016.1 - 0.0
06/09:00pm 16.9 15.6 11.2 69 3.1 SSW 9 13 5 7 1016.1 1016.0 0.0
06/08:30pm 17.6 15.1 11.2 66 3.5 SSW 15 20 8 11 1015.9 - 0.0
06/08:00pm 18.1 15.3 11.4 65 3.7 SSW 17 22 9 12 1015.7 - 0.0
06/07:30pm 18.9 14.7 11.0 60 4.3 SSW 24 32 13 17 1015.5 - 0.0
06/07:00pm 19.6 15.6 10.3 55 5.0 SW 22 30 12 16 1015.6 - 0.0
06/06:30pm 20.6 16.9 10.1 51 5.7 SW 20 30 11 16 1015.6 - 0.0
06/06:00pm 21.2 17.6 9.8 48 6.1 SW 19 26 10 14 1015.6 1015.5 0.0
06/05:30pm 21.6 18.1 10.1 48 6.3 SW 19 28 10 15 1015.5 - 0.0
06/05:00pm 21.6 17.8 9.8 47 6.4 SW 20 28 11 15 1015.5 - 0.0
06/04:30pm 21.5 17.8 10.3 49 6.1 SW 20 30 11 16 1015.6 - 0.0
06/04:00pm 21.3 17.4 9.5 47 6.3 SSW 20 32 11 17 1015.7 - 0.0
06/03:30pm 22.4 18.7 10.2 46 6.7 SSW 20 35 11 19 1016.1 - 0.0
06/03:00pm 21.3 16.8 9.9 48 6.2 SW 24 35 13 19 1016.7 1016.6 0.0
06/02:30pm 21.7 17.2 10.2 48 6.3 SW 24 35 13 19 1017.0 - 0.0
06/02:00pm 21.8 16.5 9.7 46 6.5 WSW 28 37 15 20 1017.4 - 0.0
06/01:30pm 20.4 15.6 10.2 52 5.5 WSW 26 35 14 19 1017.9 - 0.0
06/01:00pm 20.5 16.5 10.3 52 5.5 SW 22 32 12 17 1018.1 - 0.0
06/12:30pm 20.1 15.5 9.7 51 5.6 SW 24 32 13 17 1018.3 - 0.0
06/12:00pm 19.4 15.2 9.6 53 5.2 SW 22 35 12 19 1018.8 1018.7 0.0
06/11:30am 19.4 14.4 9.6 53 5.2 SW 26 37 14 20 1019.1 - 0.0
06/11:00am 19.3 15.0 9.5 53 5.2 WSW 22 32 12 17 1019.3 - 0.0
06/10:30am 17.8 14.2 10.7 63 3.8 WSW 20 30 11 16 1019.4 - 0.0
06/10:00am 17.1 13.0 10.2 64 3.7 SSW 22 32 12 17 1019.2 - 0.0
06/09:30am 17.0 13.5 10.1 64 3.7 SW 19 24 10 13 1019.0 - 0.0
06/09:00am 16.9 13.4 10.1 64 3.6 SW 19 26 10 14 1019.1 1019.0 0.2
06/08:30am 16.5 13.5 9.4 63 3.7 SW 15 22 8 12 1019.2 - 0.2
06/08:00am 16.2 13.2 9.2 63 3.6 WSW 15 22 8 12 1019.2 - 0.2
06/07:30am 15.7 13.0 9.1 65 3.4 SW 13 20 7 11 1019.0 - 0.2
06/07:00am 15.5 12.4 9.0 65 3.3 WSW 15 20 8 11 1019.0 - 0.2
06/06:30am 15.1 12.4 9.0 67 3.1 WSW 13 17 7 9 1018.8 - 0.2
06/06:00am 14.8 11.7 9.0 68 3.0 WSW 15 20 8 11 1018.8 1018.7 0.2
06/05:30am 13.1 10.9 7.8 70 2.6 WNW 9 11 5 6 1018.7 - 0.2
06/05:00am 13.0 10.3 7.5 69 2.7 NW 11 13 6 7 1018.9 - 0.2
06/04:30am 11.5 9.3 6.2 70 2.5 NNW 7 9 4 5 1019.0 - 0.2
06/04:00am 11.4 8.8 6.1 70 2.5 NNW 9 13 5 7 1019.1 - 0.2
06/03:30am 9.9 6.8 5.7 75 1.9 NNW 11 13 6 7 1019.1 - 0.2
06/03:00am 9.9 7.2 5.5 74 2.0 NNW 9 13 5 7 1019.4 1019.3 0.2
06/02:30am 10.5 9.4 5.3 70 2.4 CALM 0 0 0 0 1020.0 - 0.2
06/02:00am 11.2 10.3 5.9 70 2.5 CALM 0 0 0 0 1020.5 - 0.2
06/01:30am 10.4 9.3 5.0 69 2.5 CALM 0 0 0 0 1020.9 - 0.2
06/01:00am 10.8 8.9 4.7 66 2.8 SSE 4 7 2 4 1021.0 - 0.2
06/12:30am 11.4 9.0 5.1 65 2.9 S 7 9 4 5 1021.2 - 0.2
06/12:00am 12.8 10.8 6.4 65 3.0 SSE 6 9 3 5 1021.2 1021.1 0.2
 
Date/Time
CDT
Temp
°C
App
Temp
°C
Dew
Point
Rel
Hum
%
Delta-T
°C
Wind Press
QNH
hPa
Press
MSL
hPa
Rain
since 9 am
mm
Dir
 
Spd
km/h
Gust
km/h
Spd
kts
Gust
kts
05/11:30pm 12.9 10.3 6.0 63 3.3 S 9 13 5 7 1021.3 - 0.2
05/11:00pm 13.9 11.3 6.0 59 3.8 S 9 15 5 8 1021.5 - 0.2
05/10:30pm 15.0 10.6 6.6 57 4.1 SSW 19 24 10 13 1021.6 - 0.2
05/10:00pm 15.3 11.3 6.8 57 4.2 SSW 17 20 9 11 1021.5 - 0.2
05/09:30pm 15.9 12.0 6.9 55 4.4 SSW 17 24 9 13 1021.1 - 0.2
05/09:00pm 16.4 11.9 6.8 53 4.7 SW 20 28 11 15 1021.0 1020.9 0.2
05/08:30pm 16.8 12.2 6.6 51 5.0 SW 20 26 11 14 1020.6 - 0.2
05/08:00pm 17.5 12.6 6.7 49 5.4 SW 22 33 12 18 1020.6 - 0.2
05/07:30pm 18.4 12.7 6.6 46 5.9 SSW 26 35 14 19 1020.3 - 0.2
05/07:00pm 19.1 12.8 7.2 46 6.0 SSW 30 39 16 21 1020.0 - 0.2
05/06:30pm 19.8 13.6 7.9 46 6.1 SSW 30 41 16 22 1019.8 - 0.2
05/06:00pm 20.0 13.7 7.4 44 6.4 SW 30 41 16 22 1019.7 1019.6 0.2
05/05:30pm 20.4 14.1 7.4 43 6.7 SW 30 41 16 22 1019.7 - 0.2
05/05:00pm 20.6 14.6 7.2 42 6.9 SW 28 39 15 21 1019.6 - 0.2
05/04:30pm 21.1 15.4 6.6 39 7.4 SSW 26 35 14 19 1019.7 - 0.2
05/04:00pm 21.6 15.8 6.3 37 7.8 SW 26 33 14 18 1020.0 - 0.2
05/03:30pm 21.2 14.2 5.9 37 7.7 SW 32 43 17 23 1020.3 - 0.2
05/03:00pm 22.0 16.6 6.3 36 8.0 SW 24 35 13 19 1020.5 1020.4 0.2
05/02:30pm 23.3 18.1 5.7 32 8.9 SW 22 32 12 17 1020.7 - 0.2
05/02:00pm 22.5 18.6 3.6 29 9.2 SW 13 19 7 10 1020.9 - 0.2
05/01:30pm 21.5 17.3 3.7 31 8.6 S 15 26 8 14 1021.3 - 0.2
05/01:00pm 21.2 17.3 3.4 31 8.5 SSE 13 26 7 14 1021.7 - 0.2
05/12:30pm 20.8 16.8 4.8 35 7.8 SW 15 24 8 13 1022.3 - 0.2
05/12:00pm 19.9 15.9 4.8 37 7.3 S 15 22 8 12 1022.7 1022.6 0.2
05/11:30am 19.4 16.6 5.1 39 7.0 SE 9 24 5 13 1022.9 - 0.2
05/11:00am 18.5 14.8 6.4 45 6.0 S 15 24 8 13 1022.8 - 0.2
05/10:30am 16.8 13.3 7.2 53 4.8 SSW 15 20 8 11 1022.8 - 0.2
05/10:00am 16.4 13.4 7.9 57 4.3 S 13 20 7 11 1022.4 - 0.2
05/09:30am 16.2 12.6 8.2 59 4.1 SSE 17 26 9 14 1022.4 - 0.2
05/09:00am 16.2 13.1 8.9 62 3.7 S 15 20 8 11 1022.1 1022.0 1.0
05/08:30am 15.7 13.9 9.6 67 3.2 S 9 13 5 7 1021.5 - 1.0
05/08:00am 14.6 12.7 9.2 70 2.8 S 9 13 5 7 1021.2 - 1.0
05/07:30am 14.4 11.6 8.6 68 2.9 S 13 20 7 11 1021.1 - 1.0
05/07:00am 13.5 11.2 9.0 74 2.3 S 11 15 6 8 1020.6 - 1.0
05/06:30am 14.0 12.0 8.8 71 2.6 S 9 13 5 7 1020.3 - 1.0
05/06:00am 15.0 11.2 8.9 67 3.1 S 19 32 10 17 1020.1 1020.0 1.0
05/05:30am 15.3 11.6 9.4 68 3.1 S 19 24 10 13 1019.6 - 1.0
05/05:00am 15.8 11.6 9.9 68 3.1 S 22 33 12 18 1019.4 - 1.0
05/04:30am 16.4 13.4 12.0 75 2.4 S 19 28 10 15 1019.0 - 1.0
05/04:00am 16.0 13.5 12.4 79 2.0 SSW 17 20 9 11 1018.7 - 1.0
05/03:30am 16.6 12.6 12.9 79 2.1 SSW 26 37 14 20 1018.8 - 1.0
05/03:00am 17.1 14.6 13.4 79 2.1 SSW 19 33 10 18 1018.6 1018.5 1.0
05/02:30am 17.1 14.4 13.6 80 2.0 SSW 20 30 11 16 1018.8 - 1.0
05/02:00am 16.7 13.8 14.0 84 1.5 SW 22 28 12 15 1019.1 - 1.0
05/01:30am 16.6 14.5 14.6 88 1.2 WSW 19 24 10 13 1019.2 - 1.0
05/01:00am 16.4 12.6 13.7 84 1.5 SW 26 39 14 21 1019.2 - 0.2
05/12:30am 18.8 14.9 12.1 65 3.7 WSW 24 33 13 18 1018.7 - 0.0
05/12:00am 18.4 15.4 12.4 68 3.3 WSW 20 26 11 14 1018.7 1018.6 0.0
 
Date/Time
CDT
Temp
°C
App
Temp
°C
Dew
Point
Rel
Hum
%
Delta-T
°C
Wind Press
QNH
hPa
Press
MSL
hPa
Rain
since 9 am
mm
Dir
 
Spd
km/h
Gust
km/h
Spd
kts
Gust
kts
04/11:30pm 18.5 15.5 12.5 68 3.4 WSW 20 26 11 14 1018.4 - 0.0
04/11:00pm 18.3 14.4 13.2 72 2.9 SW 26 35 14 19 1018.8 - 0.0
04/10:30pm 19.1 14.3 10.4 57 4.7 WSW 26 33 14 18 1018.7 - 0.0
04/10:00pm 19.2 14.6 9.7 54 5.1 WSW 24 37 13 20 1018.9 - 0.0
04/09:30pm 19.2 13.7 10.7 58 4.6 SW 30 41 16 22 1018.4 - 0.0
04/09:00pm 19.4 14.5 11.2 59 4.5 WSW 28 39 15 21 1017.8 1017.7 0.0
04/08:30pm 19.3 15.0 12.1 63 4.0 SW 26 37 14 20 1017.5 - 0.0
04/08:00pm 19.3 15.2 11.6 61 4.3 SW 24 32 13 17 1017.2 - 0.0
04/07:30pm 19.5 15.4 11.5 60 4.4 SW 24 32 13 17 1017.2 - 0.0
04/07:00pm 20.1 15.9 11.1 56 4.9 SW 24 33 13 18 1016.8 - 0.0
04/06:30pm 20.8 16.6 11.2 54 5.3 SW 24 32 13 17 1016.8 - 0.0
04/06:00pm 21.2 17.4 11.0 52 5.6 SW 22 30 12 16 1016.7 1016.6 0.0
04/05:30pm 21.2 17.3 10.7 51 5.8 SW 22 30 12 16 1016.5 - 0.0
04/05:00pm 22.2 17.4 9.0 43 7.1 SW 24 32 13 17 1016.3 - 0.0
04/04:30pm 22.1 17.7 8.9 43 7.0 SW 22 32 12 17 1016.4 - 0.0
04/04:00pm 22.7 18.6 8.8 41 7.4 SW 20 32 11 17 1016.7 - 0.0
04/03:30pm 22.5 17.8 7.9 39 7.7 SW 22 44 12 24 1017.1 - 0.0
04/03:00pm 22.5 17.1 8.2 40 7.5 SW 26 41 14 22 1017.4 1017.3 0.0
04/02:30pm 23.1 18.7 8.8 40 7.7 SW 22 37 12 20 1017.6 - 0.0
04/02:00pm 23.1 18.7 9.1 41 7.5 SW 22 39 12 21 1017.8 - 0.0
04/01:30pm 22.1 17.1 8.2 41 7.3 WSW 24 35 13 19 1017.9 - 0.0
04/01:00pm 22.4 18.9 8.9 42 7.2 WSW 17 28 9 15 1017.9 - 0.0
04/12:30pm 21.9 17.7 8.1 41 7.2 W 20 28 11 15 1018.1 - 0.0
04/12:00pm 21.9 18.7 9.8 46 6.5 W 17 22 9 12 1018.7 1018.6 0.0
04/11:30am 20.3 16.9 9.2 49 5.9 WSW 17 22 9 12 1019.1 - 0.0
04/11:00am 19.3 17.1 9.5 53 5.2 WSW 11 22 6 12 1019.3 - 0.0

Other Formats:

Comma delimited format used in spreadsheet applications
http://www.bom.gov.au/fwo/IDS60801/IDS60801.95671.axf

JavaScript Object Notation format (JSON) in row-major order
http://www.bom.gov.au/fwo/IDS60801/IDS60801.95671.json